sensor_id;sensor_type;location;lat;lon;timestamp;temperature;humidity
37786;DHT22;23625;48.784;9.336;2022-11-15T00:00:25;9.80;99.90
37786;DHT22;23625;48.784;9.336;2022-11-15T00:02:55;9.80;99.90
37786;DHT22;23625;48.784;9.336;2022-11-15T00:05:21;9.90;99.90
37786;DHT22;23625;48.784;9.336;2022-11-15T00:07:46;9.90;99.90
37786;DHT22;23625;48.784;9.336;2022-11-15T00:10:12;9.90;99.90
37786;DHT22;23625;48.784;9.336;2022-11-15T00:12:38;10.00;99.90
37786;DHT22;23625;48.784;9.336;2022-11-15T00:15:04;9.80;99.90
37786;DHT22;23625;48.784;9.336;2022-11-15T00:17:30;9.90;99.90
37786;DHT22;23625;48.784;9.336;2022-11-15T00:19:55;9.90;99.90
37786;DHT22;23625;48.784;9.336;2022-11-15T00:22:21;9.80;99.90
37786;DHT22;23625;48.784;9.336;2022-11-15T00:24:46;9.80;99.90
37786;DHT22;23625;48.784;9.336;2022-11-15T00:27:12;9.80;99.90
37786;DHT22;23625;48.784;9.336;2022-11-15T00:29:38;9.70;99.90
37786;DHT22;23625;48.784;9.336;2022-11-15T00:32:11;9.70;99.90
37786;DHT22;23625;48.784;9.336;2022-11-15T00:34:36;9.70;99.90
37786;DHT22;23625;48.784;9.336;2022-11-15T00:37:02;9.70;99.90
37786;DHT22;23625;48.784;9.336;2022-11-15T00:39:27;9.80;99.90
37786;DHT22;23625;48.784;9.336;2022-11-15T00:41:53;9.80;99.90
37786;DHT22;23625;48.784;9.336;2022-11-15T00:44:19;9.90;99.90
37786;DHT22;23625;48.784;9.336;2022-11-15T00:46:44;10.00;99.90
37786;DHT22;23625;48.784;9.336;2022-11-15T00:49:10;9.90;99.90
37786;DHT22;23625;48.784;9.336;2022-11-15T00:51:35;9.90;99.90
37786;DHT22;23625;48.784;9.336;2022-11-15T00:54:01;9.90;99.90
37786;DHT22;23625;48.784;9.336;2022-11-15T00:56:27;9.90;99.90
37786;DHT22;23625;48.784;9.336;2022-11-15T00:58:52;9.80;99.90
37786;DHT22;23625;48.784;9.336;2022-11-15T01:01:18;9.80;99.90
37786;DHT22;23625;48.784;9.336;2022-11-15T01:03:44;9.70;99.90
37786;DHT22;23625;48.784;9.336;2022-11-15T01:06:10;9.60;99.90
37786;DHT22;23625;48.784;9.336;2022-11-15T01:08:38;9.70;99.90
37786;DHT22;23625;48.784;9.336;2022-11-15T01:11:06;9.60;99.90
37786;DHT22;23625;48.784;9.336;2022-11-15T01:13:33;9.60;99.90
37786;DHT22;23625;48.784;9.336;2022-11-15T01:16:10;9.50;99.90
37786;DHT22;23625;48.784;9.336;2022-11-15T01:18:36;9.50;99.90
37786;DHT22;23625;48.784;9.336;2022-11-15T01:21:07;9.50;99.90
37786;DHT22;23625;48.784;9.336;2022-11-15T01:23:32;9.40;99.90
37786;DHT22;23625;48.784;9.336;2022-11-15T01:25:59;9.30;99.90
37786;DHT22;23625;48.784;9.336;2022-11-15T01:28:25;9.30;99.90
37786;DHT22;23625;48.784;9.336;2022-11-15T01:30:58;9.40;99.90
37786;DHT22;23625;48.784;9.336;2022-11-15T01:33:23;9.20;99.90
37786;DHT22;23625;48.784;9.336;2022-11-15T01:35:49;9.20;99.90
37786;DHT22;23625;48.784;9.336;2022-11-15T01:38:15;9.20;99.90
37786;DHT22;23625;48.784;9.336;2022-11-15T01:40:40;9.20;99.90
37786;DHT22;23625;48.784;9.336;2022-11-15T01:43:29;9.20;99.90
37786;DHT22;23625;48.784;9.336;2022-11-15T01:46:00;9.10;99.90
37786;DHT22;23625;48.784;9.336;2022-11-15T01:48:46;9.00;99.90
37786;DHT22;23625;48.784;9.336;2022-11-15T01:51:13;8.90;99.90
37786;DHT22;23625;48.784;9.336;2022-11-15T01:53:43;8.90;99.90
37786;DHT22;23625;48.784;9.336;2022-11-15T01:56:11;8.80;99.90
37786;DHT22;23625;48.784;9.336;2022-11-15T01:58:40;8.60;99.90
37786;DHT22;23625;48.784;9.336;2022-11-15T02:01:06;8.60;99.90
37786;DHT22;23625;48.784;9.336;2022-11-15T02:03:48;8.50;99.90
37786;DHT22;23625;48.784;9.336;2022-11-15T02:06:15;8.50;99.90
37786;DHT22;23625;48.784;9.336;2022-11-15T02:08:42;8.50;99.90
37786;DHT22;23625;48.784;9.336;2022-11-15T02:11:08;8.30;99.90
37786;DHT22;23625;48.784;9.336;2022-11-15T02:13:35;8.40;99.90
37786;DHT22;23625;48.784;9.336;2022-11-15T02:28:25;7.90;99.90
37786;DHT22;23625;48.784;9.336;2022-11-15T02:32:03;7.90;99.90
37786;DHT22;23625;48.784;9.336;2022-11-15T02:34:11;7.80;99.90
37786;DHT22;23625;48.784;9.336;2022-11-15T02:40:43;7.70;99.90
37786;DHT22;23625;48.784;9.336;2022-11-15T02:42:41;7.70;99.90
37786;DHT22;23625;48.784;9.336;2022-11-15T02:45:33;7.70;99.90
37786;DHT22;23625;48.784;9.336;2022-11-15T02:48:01;7.70;99.90
37786;DHT22;23625;48.784;9.336;2022-11-15T02:50:29;7.70;99.90
37786;DHT22;23625;48.784;9.336;2022-11-15T02:52:55;7.60;99.90
37786;DHT22;23625;48.784;9.336;2022-11-15T02:55:36;7.60;99.90
37786;DHT22;23625;48.784;9.336;2022-11-15T03:00:48;7.50;99.90
37786;DHT22;23625;48.784;9.336;2022-11-15T03:06:25;7.40;99.90
37786;DHT22;23625;48.784;9.336;2022-11-15T03:09:22;7.40;99.90
37786;DHT22;23625;48.784;9.336;2022-11-15T03:11:56;7.30;99.90
37786;DHT22;23625;48.784;9.336;2022-11-15T03:14:29;7.30;99.90
37786;DHT22;23625;48.784;9.336;2022-11-15T03:19:53;7.30;99.90
37786;DHT22;23625;48.784;9.336;2022-11-15T03:22:21;7.30;99.90
37786;DHT22;23625;48.784;9.336;2022-11-15T03:24:54;7.20;99.90
37786;DHT22;23625;48.784;9.336;2022-11-15T03:27:24;7.30;99.90
37786;DHT22;23625;48.784;9.336;2022-11-15T03:29:54;7.30;99.90
37786;DHT22;23625;48.784;9.336;2022-11-15T03:32:29;7.30;99.90
37786;DHT22;23625;48.784;9.336;2022-11-15T03:34:59;7.30;99.90
37786;DHT22;23625;48.784;9.336;2022-11-15T03:37:35;7.40;99.90
37786;DHT22;23625;48.784;9.336;2022-11-15T03:40:03;7.40;99.90
37786;DHT22;23625;48.784;9.336;2022-11-15T03:45:28;7.30;99.90
37786;DHT22;23625;48.784;9.336;2022-11-15T03:48:07;7.20;99.90
37786;DHT22;23625;48.784;9.336;2022-11-15T03:50:36;7.20;99.90
37786;DHT22;23625;48.784;9.336;2022-11-15T03:53:02;7.20;99.90
37786;DHT22;23625;48.784;9.336;2022-11-15T03:55:27;7.20;99.90
37786;DHT22;23625;48.784;9.336;2022-11-15T03:57:56;7.10;99.90
37786;DHT22;23625;48.784;9.336;2022-11-15T04:00:23;7.20;99.90
37786;DHT22;23625;48.784;9.336;2022-11-15T04:02:48;7.20;99.90
37786;DHT22;23625;48.784;9.336;2022-11-15T04:05:14;7.20;99.90
37786;DHT22;23625;48.784;9.336;2022-11-15T04:07:39;7.20;99.90
37786;DHT22;23625;48.784;9.336;2022-11-15T04:10:05;7.20;99.90
37786;DHT22;23625;48.784;9.336;2022-11-15T04:12:37;7.20;99.90
37786;DHT22;23625;48.784;9.336;2022-11-15T04:15:08;7.20;99.90
37786;DHT22;23625;48.784;9.336;2022-11-15T04:17:49;7.20;99.90
37786;DHT22;23625;48.784;9.336;2022-11-15T04:20:23;7.10;99.90
37786;DHT22;23625;48.784;9.336;2022-11-15T04:23:13;7.00;99.90
37786;DHT22;23625;48.784;9.336;2022-11-15T04:26:06;7.10;99.90
37786;DHT22;23625;48.784;9.336;2022-11-15T04:28:33;7.20;99.90
37786;DHT22;23625;48.784;9.336;2022-11-15T04:30:59;7.40;99.90
37786;DHT22;23625;48.784;9.336;2022-11-15T04:33:24;7.50;99.90
37786;DHT22;23625;48.784;9.336;2022-11-15T04:35:50;7.50;99.90
37786;DHT22;23625;48.784;9.336;2022-11-15T04:38:48;7.50;99.90
37786;DHT22;23625;48.784;9.336;2022-11-15T04:41:14;7.60;99.90
37786;DHT22;23625;48.784;9.336;2022-11-15T04:43:39;7.60;99.90
37786;DHT22;23625;48.784;9.336;2022-11-15T04:46:05;7.70;99.90
37786;DHT22;23625;48.784;9.336;2022-11-15T04:48:31;7.70;99.90
37786;DHT22;23625;48.784;9.336;2022-11-15T04:50:56;7.70;99.90
37786;DHT22;23625;48.784;9.336;2022-11-15T04:53:22;7.80;99.90
37786;DHT22;23625;48.784;9.336;2022-11-15T04:55:47;7.70;99.90
37786;DHT22;23625;48.784;9.336;2022-11-15T04:58:13;7.70;99.90
37786;DHT22;23625;48.784;9.336;2022-11-15T05:00:38;7.70;99.90
37786;DHT22;23625;48.784;9.336;2022-11-15T05:03:05;7.60;99.90
37786;DHT22;23625;48.784;9.336;2022-11-15T05:05:53;7.50;99.90
37786;DHT22;23625;48.784;9.336;2022-11-15T05:08:19;7.50;99.90
37786;DHT22;23625;48.784;9.336;2022-11-15T05:10:45;7.40;99.90
37786;DHT22;23625;48.784;9.336;2022-11-15T05:13:10;7.50;99.90
37786;DHT22;23625;48.784;9.336;2022-11-15T05:15:36;7.40;99.90
37786;DHT22;23625;48.784;9.336;2022-11-15T05:18:01;7.30;99.90
37786;DHT22;23625;48.784;9.336;2022-11-15T05:20:27;7.40;99.90
37786;DHT22;23625;48.784;9.336;2022-11-15T05:22:53;7.40;99.90
37786;DHT22;23625;48.784;9.336;2022-11-15T05:25:21;7.30;99.90
37786;DHT22;23625;48.784;9.336;2022-11-15T05:27:47;7.40;99.90
37786;DHT22;23625;48.784;9.336;2022-11-15T05:30:12;7.50;99.90
37786;DHT22;23625;48.784;9.336;2022-11-15T05:32:38;7.50;99.90
37786;DHT22;23625;48.784;9.336;2022-11-15T05:35:05;7.50;99.90
37786;DHT22;23625;48.784;9.336;2022-11-15T05:37:32;7.60;99.90
37786;DHT22;23625;48.784;9.336;2022-11-15T05:39:58;7.60;99.90
37786;DHT22;23625;48.784;9.336;2022-11-15T05:42:25;7.60;99.90
37786;DHT22;23625;48.784;9.336;2022-11-15T05:44:51;7.70;99.90
37786;DHT22;23625;48.784;9.336;2022-11-15T05:47:21;7.80;99.90
37786;DHT22;23625;48.784;9.336;2022-11-15T05:49:51;7.90;99.90
37786;DHT22;23625;48.784;9.336;2022-11-15T05:52:20;7.90;99.90
37786;DHT22;23625;48.784;9.336;2022-11-15T05:54:47;7.90;99.90
37786;DHT22;23625;48.784;9.336;2022-11-15T05:57:13;8.00;99.90
37786;DHT22;23625;48.784;9.336;2022-11-15T05:59:39;8.00;99.90
37786;DHT22;23625;48.784;9.336;2022-11-15T06:02:06;8.00;99.90
37786;DHT22;23625;48.784;9.336;2022-11-15T06:04:32;8.00;99.90
37786;DHT22;23625;48.784;9.336;2022-11-15T06:06:58;8.00;99.90
37786;DHT22;23625;48.784;9.336;2022-11-15T06:09:24;8.00;99.90
37786;DHT22;23625;48.784;9.336;2022-11-15T06:11:50;8.00;99.90
37786;DHT22;23625;48.784;9.336;2022-11-15T06:14:15;8.00;99.90
37786;DHT22;23625;48.784;9.336;2022-11-15T06:16:41;8.20;99.90
37786;DHT22;23625;48.784;9.336;2022-11-15T06:19:07;8.20;99.90
37786;DHT22;23625;48.784;9.336;2022-11-15T06:21:32;8.20;99.90
37786;DHT22;23625;48.784;9.336;2022-11-15T06:23:58;8.20;99.90
37786;DHT22;23625;48.784;9.336;2022-11-15T06:26:24;8.10;99.90
37786;DHT22;23625;48.784;9.336;2022-11-15T06:28:49;8.00;99.90
37786;DHT22;23625;48.784;9.336;2022-11-15T06:31:15;8.00;99.90
37786;DHT22;23625;48.784;9.336;2022-11-15T06:33:40;8.10;99.90
37786;DHT22;23625;48.784;9.336;2022-11-15T06:36:09;8.10;99.90
37786;DHT22;23625;48.784;9.336;2022-11-15T06:38:35;8.00;99.90
37786;DHT22;23625;48.784;9.336;2022-11-15T06:41:05;7.90;99.90
37786;DHT22;23625;48.784;9.336;2022-11-15T06:43:32;7.80;99.90
37786;DHT22;23625;48.784;9.336;2022-11-15T06:45:59;7.70;99.90
37786;DHT22;23625;48.784;9.336;2022-11-15T06:48:25;7.70;99.90
37786;DHT22;23625;48.784;9.336;2022-11-15T06:50:58;7.50;99.90
37786;DHT22;23625;48.784;9.336;2022-11-15T06:53:24;7.50;99.90
37786;DHT22;23625;48.784;9.336;2022-11-15T06:55:50;7.50;99.90
37786;DHT22;23625;48.784;9.336;2022-11-15T06:58:16;7.50;99.90
37786;DHT22;23625;48.784;9.336;2022-11-15T07:00:42;7.40;99.90
37786;DHT22;23625;48.784;9.336;2022-11-15T07:03:09;7.40;99.90
37786;DHT22;23625;48.784;9.336;2022-11-15T07:05:34;7.50;99.90
37786;DHT22;23625;48.784;9.336;2022-11-15T07:08:00;7.50;99.90
37786;DHT22;23625;48.784;9.336;2022-11-15T07:10:27;7.50;99.90
37786;DHT22;23625;48.784;9.336;2022-11-15T07:12:53;7.40;99.90
37786;DHT22;23625;48.784;9.336;2022-11-15T07:15:21;7.40;99.90
37786;DHT22;23625;48.784;9.336;2022-11-15T07:17:47;7.40;99.90
37786;DHT22;23625;48.784;9.336;2022-11-15T07:20:13;7.50;99.90
37786;DHT22;23625;48.784;9.336;2022-11-15T07:22:39;7.40;99.90
37786;DHT22;23625;48.784;9.336;2022-11-15T07:25:05;7.40;99.90
37786;DHT22;23625;48.784;9.336;2022-11-15T07:27:31;7.40;99.90
37786;DHT22;23625;48.784;9.336;2022-11-15T07:29:56;7.40;99.90
37786;DHT22;23625;48.784;9.336;2022-11-15T07:32:22;7.40;99.90
37786;DHT22;23625;48.784;9.336;2022-11-15T07:34:47;7.50;99.90
37786;DHT22;23625;48.784;9.336;2022-11-15T07:37:13;7.60;99.90
37786;DHT22;23625;48.784;9.336;2022-11-15T07:39:38;7.50;99.90
37786;DHT22;23625;48.784;9.336;2022-11-15T07:42:04;7.60;99.90
37786;DHT22;23625;48.784;9.336;2022-11-15T07:44:48;7.60;99.90
37786;DHT22;23625;48.784;9.336;2022-11-15T07:47:14;7.60;99.90
37786;DHT22;23625;48.784;9.336;2022-11-15T07:49:39;7.80;99.90
37786;DHT22;23625;48.784;9.336;2022-11-15T07:52:05;7.80;99.90
37786;DHT22;23625;48.784;9.336;2022-11-15T07:54:31;7.90;99.90
37786;DHT22;23625;48.784;9.336;2022-11-15T07:56:56;8.00;99.90
37786;DHT22;23625;48.784;9.336;2022-11-15T07:59:22;8.10;99.90
37786;DHT22;23625;48.784;9.336;2022-11-15T08:01:47;8.10;99.90
37786;DHT22;23625;48.784;9.336;2022-11-15T08:04:13;8.40;99.90
37786;DHT22;23625;48.784;9.336;2022-11-15T08:06:39;8.60;99.90
37786;DHT22;23625;48.784;9.336;2022-11-15T08:09:04;8.90;99.90
37786;DHT22;23625;48.784;9.336;2022-11-15T08:11:30;9.10;99.90
37786;DHT22;23625;48.784;9.336;2022-11-15T08:13:56;9.40;99.90
37786;DHT22;23625;48.784;9.336;2022-11-15T08:16:21;9.60;99.90
37786;DHT22;23625;48.784;9.336;2022-11-15T08:18:47;9.70;99.90
37786;DHT22;23625;48.784;9.336;2022-11-15T08:21:17;9.70;99.90
37786;DHT22;23625;48.784;9.336;2022-11-15T08:23:44;9.80;99.90
37786;DHT22;23625;48.784;9.336;2022-11-15T08:26:09;9.80;99.90
37786;DHT22;23625;48.784;9.336;2022-11-15T08:28:35;9.90;99.90
37786;DHT22;23625;48.784;9.336;2022-11-15T08:31:01;9.90;99.90
37786;DHT22;23625;48.784;9.336;2022-11-15T08:33:27;10.00;99.90
37786;DHT22;23625;48.784;9.336;2022-11-15T08:35:59;10.10;99.90
37786;DHT22;23625;48.784;9.336;2022-11-15T08:38:24;10.30;99.90
37786;DHT22;23625;48.784;9.336;2022-11-15T08:40:59;10.40;99.90
37786;DHT22;23625;48.784;9.336;2022-11-15T08:43:26;10.60;99.90
37786;DHT22;23625;48.784;9.336;2022-11-15T08:45:51;10.70;99.90
37786;DHT22;23625;48.784;9.336;2022-11-15T08:48:17;10.60;99.90
37786;DHT22;23625;48.784;9.336;2022-11-15T08:50:42;10.70;99.90
37786;DHT22;23625;48.784;9.336;2022-11-15T08:53:10;10.70;99.90
37786;DHT22;23625;48.784;9.336;2022-11-15T08:55:37;10.80;99.90
37786;DHT22;23625;48.784;9.336;2022-11-15T08:58:03;10.90;99.90
37786;DHT22;23625;48.784;9.336;2022-11-15T09:00:29;11.00;99.90
37786;DHT22;23625;48.784;9.336;2022-11-15T09:02:54;11.20;99.90
37786;DHT22;23625;48.784;9.336;2022-11-15T09:05:23;11.40;99.90
37786;DHT22;23625;48.784;9.336;2022-11-15T09:07:53;12.40;99.90
37786;DHT22;23625;48.784;9.336;2022-11-15T09:10:19;11.80;99.90
37786;DHT22;23625;48.784;9.336;2022-11-15T09:12:45;12.00;99.90
37786;DHT22;23625;48.784;9.336;2022-11-15T09:15:14;12.20;99.90
37786;DHT22;23625;48.784;9.336;2022-11-15T09:17:39;12.40;99.90
37786;DHT22;23625;48.784;9.336;2022-11-15T09:20:05;12.50;99.90
37786;DHT22;23625;48.784;9.336;2022-11-15T09:22:31;12.60;99.90
37786;DHT22;23625;48.784;9.336;2022-11-15T09:24:57;12.80;99.90
37786;DHT22;23625;48.784;9.336;2022-11-15T09:27:22;12.90;99.90
37786;DHT22;23625;48.784;9.336;2022-11-15T09:29:48;13.10;99.90
37786;DHT22;23625;48.784;9.336;2022-11-15T09:32:13;13.30;99.90
37786;DHT22;23625;48.784;9.336;2022-11-15T09:34:39;13.30;99.90
37786;DHT22;23625;48.784;9.336;2022-11-15T09:37:05;13.20;99.90
37786;DHT22;23625;48.784;9.336;2022-11-15T09:39:31;13.20;99.90
37786;DHT22;23625;48.784;9.336;2022-11-15T09:45:06;13.30;99.90
37786;DHT22;23625;48.784;9.336;2022-11-15T09:50:36;13.70;99.90
37786;DHT22;23625;48.784;9.336;2022-11-15T09:53:04;14.10;99.90
37786;DHT22;23625;48.784;9.336;2022-11-15T09:56:03;14.30;99.90
37786;DHT22;23625;48.784;9.336;2022-11-15T10:04:25;15.00;99.90
37786;DHT22;23625;48.784;9.336;2022-11-15T10:07:01;15.20;99.90
37786;DHT22;23625;48.784;9.336;2022-11-15T10:10:00;15.40;99.90
37786;DHT22;23625;48.784;9.336;2022-11-15T10:12:27;15.60;99.90
37786;DHT22;23625;48.784;9.336;2022-11-15T10:15:20;15.70;99.90
37786;DHT22;23625;48.784;9.336;2022-11-15T10:20:29;15.80;99.90
37786;DHT22;23625;48.784;9.336;2022-11-15T10:23:05;15.70;99.90
37786;DHT22;23625;48.784;9.336;2022-11-15T10:25:32;15.60;99.90
37786;DHT22;23625;48.784;9.336;2022-11-15T10:28:28;15.40;99.90
37786;DHT22;23625;48.784;9.336;2022-11-15T10:30:59;15.40;99.90
37786;DHT22;23625;48.784;9.336;2022-11-15T10:41:14;15.50;99.90
37786;DHT22;23625;48.784;9.336;2022-11-15T10:43:40;15.50;99.90
37786;DHT22;23625;48.784;9.336;2022-11-15T10:46:21;15.40;99.90
37786;DHT22;23625;48.784;9.336;2022-11-15T10:48:47;15.40;99.90
37786;DHT22;23625;48.784;9.336;2022-11-15T10:51:24;15.30;99.90
37786;DHT22;23625;48.784;9.336;2022-11-15T10:53:55;15.30;99.90
37786;DHT22;23625;48.784;9.336;2022-11-15T10:56:22;15.10;99.90
37786;DHT22;23625;48.784;9.336;2022-11-15T10:58:58;15.10;99.90
37786;DHT22;23625;48.784;9.336;2022-11-15T11:01:26;15.10;99.90
37786;DHT22;23625;48.784;9.336;2022-11-15T11:04:06;15.10;99.90
37786;DHT22;23625;48.784;9.336;2022-11-15T11:06:53;15.10;99.90
37786;DHT22;23625;48.784;9.336;2022-11-15T11:09:38;15.00;99.90
37786;DHT22;23625;48.784;9.336;2022-11-15T11:12:08;15.00;99.90
37786;DHT22;23625;48.784;9.336;2022-11-15T11:14:36;15.00;99.90
37786;DHT22;23625;48.784;9.336;2022-11-15T11:17:34;15.00;99.90
37786;DHT22;23625;48.784;9.336;2022-11-15T11:26:25;15.00;99.90
37786;DHT22;23625;48.784;9.336;2022-11-15T11:29:24;14.90;96.20
37786;DHT22;23625;48.784;9.336;2022-11-15T11:34:59;14.90;94.60
37786;DHT22;23625;48.784;9.336;2022-11-15T11:45:57;14.90;99.00
37786;DHT22;23625;48.784;9.336;2022-11-15T11:48:46;14.90;96.40
37786;DHT22;23625;48.784;9.336;2022-11-15T11:51:18;14.90;95.90
37786;DHT22;23625;48.784;9.336;2022-11-15T11:54:10;14.90;94.70
37786;DHT22;23625;48.784;9.336;2022-11-15T11:56:39;15.00;95.30
37786;DHT22;23625;48.784;9.336;2022-11-15T11:59:13;15.00;96.20
37786;DHT22;23625;48.784;9.336;2022-11-15T12:01:45;14.90;94.80
37786;DHT22;23625;48.784;9.336;2022-11-15T12:04:25;15.00;95.00
37786;DHT22;23625;48.784;9.336;2022-11-15T12:07:03;14.90;94.00
37786;DHT22;23625;48.784;9.336;2022-11-15T12:16:59;15.10;96.80
37786;DHT22;23625;48.784;9.336;2022-11-15T12:19:25;15.60;97.70
37786;DHT22;23625;48.784;9.336;2022-11-15T12:22:26;15.30;98.50
37786;DHT22;23625;48.784;9.336;2022-11-15T12:25:00;15.40;96.50
37786;DHT22;23625;48.784;9.336;2022-11-15T12:27:36;15.40;93.60
37786;DHT22;23625;48.784;9.336;2022-11-15T12:30:15;15.30;94.60
37786;DHT22;23625;48.784;9.336;2022-11-15T12:33:00;15.40;96.20
37786;DHT22;23625;48.784;9.336;2022-11-15T12:35:35;15.30;96.40
37786;DHT22;23625;48.784;9.336;2022-11-15T12:38:02;15.30;97.20
37786;DHT22;23625;48.784;9.336;2022-11-15T12:40:33;15.30;97.30
37786;DHT22;23625;48.784;9.336;2022-11-15T12:50:55;15.10;97.60
37786;DHT22;23625;48.784;9.336;2022-11-15T12:58:49;15.00;97.30
37786;DHT22;23625;48.784;9.336;2022-11-15T13:06:43;14.90;99.00
37786;DHT22;23625;48.784;9.336;2022-11-15T13:11:53;14.90;96.90
37786;DHT22;23625;48.784;9.336;2022-11-15T13:19:47;14.80;97.90
37786;DHT22;23625;48.784;9.336;2022-11-15T13:22:14;14.80;99.00
37786;DHT22;23625;48.784;9.336;2022-11-15T13:25:00;14.70;99.20
37786;DHT22;23625;48.784;9.336;2022-11-15T13:27:26;14.70;97.70
37786;DHT22;23625;48.784;9.336;2022-11-15T13:29:52;14.70;98.70
37786;DHT22;23625;48.784;9.336;2022-11-15T13:32:19;14.70;97.50
37786;DHT22;23625;48.784;9.336;2022-11-15T13:34:46;14.70;98.00
37786;DHT22;23625;48.784;9.336;2022-11-15T13:39:48;14.60;97.60
37786;DHT22;23625;48.784;9.336;2022-11-15T13:42:16;14.60;97.10
37786;DHT22;23625;48.784;9.336;2022-11-15T13:44:55;14.60;97.30
37786;DHT22;23625;48.784;9.336;2022-11-15T13:47:21;14.60;97.30
37786;DHT22;23625;48.784;9.336;2022-11-15T13:49:50;14.60;97.50
37786;DHT22;23625;48.784;9.336;2022-11-15T13:52:15;14.60;98.10
37786;DHT22;23625;48.784;9.336;2022-11-15T13:54:54;14.60;98.20
37786;DHT22;23625;48.784;9.336;2022-11-15T13:57:25;14.60;97.60
37786;DHT22;23625;48.784;9.336;2022-11-15T13:59:55;14.60;97.70
37786;DHT22;23625;48.784;9.336;2022-11-15T14:02:37;14.50;97.90
37786;DHT22;23625;48.784;9.336;2022-11-15T14:07:38;14.50;98.00
37786;DHT22;23625;48.784;9.336;2022-11-15T14:12:56;14.50;98.90
37786;DHT22;23625;48.784;9.336;2022-11-15T14:15:34;14.40;99.50
37786;DHT22;23625;48.784;9.336;2022-11-15T14:18:00;14.40;99.40
37786;DHT22;23625;48.784;9.336;2022-11-15T14:22:58;14.30;99.90
37786;DHT22;23625;48.784;9.336;2022-11-15T14:25:26;14.30;99.90
37786;DHT22;23625;48.784;9.336;2022-11-15T14:30:54;14.20;99.90
37786;DHT22;23625;48.784;9.336;2022-11-15T14:33:29;14.20;99.90
37786;DHT22;23625;48.784;9.336;2022-11-15T14:35:57;14.10;99.90
37786;DHT22;23625;48.784;9.336;2022-11-15T14:38:24;14.10;99.90
37786;DHT22;23625;48.784;9.336;2022-11-15T14:40:50;14.00;99.90
37786;DHT22;23625;48.784;9.336;2022-11-15T14:43:16;14.00;99.90
37786;DHT22;23625;48.784;9.336;2022-11-15T14:45:41;14.10;99.90
37786;DHT22;23625;48.784;9.336;2022-11-15T14:48:07;14.00;99.90
37786;DHT22;23625;48.784;9.336;2022-11-15T14:50:34;13.80;99.90
37786;DHT22;23625;48.784;9.336;2022-11-15T14:52:59;13.60;99.90
37786;DHT22;23625;48.784;9.336;2022-11-15T14:55:33;13.60;99.90
37786;DHT22;23625;48.784;9.336;2022-11-15T14:58:05;13.40;99.90
37786;DHT22;23625;48.784;9.336;2022-11-15T15:00:34;13.40;99.90
37786;DHT22;23625;48.784;9.336;2022-11-15T15:03:00;13.30;99.90
37786;DHT22;23625;48.784;9.336;2022-11-15T15:05:34;13.20;99.90
37786;DHT22;23625;48.784;9.336;2022-11-15T15:08:00;13.20;99.90
37786;DHT22;23625;48.784;9.336;2022-11-15T15:10:34;13.00;99.90
37786;DHT22;23625;48.784;9.336;2022-11-15T15:13:00;12.90;99.90
37786;DHT22;23625;48.784;9.336;2022-11-15T15:15:34;12.90;99.90
37786;DHT22;23625;48.784;9.336;2022-11-15T15:18:00;12.90;99.90
37786;DHT22;23625;48.784;9.336;2022-11-15T15:20:26;12.80;99.90
37786;DHT22;23625;48.784;9.336;2022-11-15T15:22:51;12.80;99.90
37786;DHT22;23625;48.784;9.336;2022-11-15T15:25:34;12.70;99.90
37786;DHT22;23625;48.784;9.336;2022-11-15T15:28:01;12.60;99.90
37786;DHT22;23625;48.784;9.336;2022-11-15T15:30:29;12.60;99.90
37786;DHT22;23625;48.784;9.336;2022-11-15T15:32:55;12.50;99.90
37786;DHT22;23625;48.784;9.336;2022-11-15T15:35:21;12.50;99.90
37786;DHT22;23625;48.784;9.336;2022-11-15T15:37:48;12.40;99.90
37786;DHT22;23625;48.784;9.336;2022-11-15T15:40:22;12.40;99.90
37786;DHT22;23625;48.784;9.336;2022-11-15T15:42:49;12.40;99.90
37786;DHT22;23625;48.784;9.336;2022-11-15T15:45:16;12.30;99.90
37786;DHT22;23625;48.784;9.336;2022-11-15T15:47:42;12.20;99.90
37786;DHT22;23625;48.784;9.336;2022-11-15T15:52:45;12.20;99.90
37786;DHT22;23625;48.784;9.336;2022-11-15T15:55:11;12.10;99.90
37786;DHT22;23625;48.784;9.336;2022-11-15T15:57:36;12.10;99.90
37786;DHT22;23625;48.784;9.336;2022-11-15T16:00:04;12.00;99.90
37786;DHT22;23625;48.784;9.336;2022-11-15T16:02:30;12.00;99.90
37786;DHT22;23625;48.784;9.336;2022-11-15T16:04:55;12.00;99.90
37786;DHT22;23625;48.784;9.336;2022-11-15T16:07:22;11.90;99.90
37786;DHT22;23625;48.784;9.336;2022-11-15T16:09:49;11.90;99.90
37786;DHT22;23625;48.784;9.336;2022-11-15T16:14:53;11.90;99.90
37786;DHT22;23625;48.784;9.336;2022-11-15T16:17:21;11.90;99.90
37786;DHT22;23625;48.784;9.336;2022-11-15T16:19:47;11.90;99.90
37786;DHT22;23625;48.784;9.336;2022-11-15T16:22:13;11.90;99.90
37786;DHT22;23625;48.784;9.336;2022-11-15T16:24:39;11.90;99.90
37786;DHT22;23625;48.784;9.336;2022-11-15T16:27:04;11.90;99.90
37786;DHT22;23625;48.784;9.336;2022-11-15T16:29:30;11.90;99.90
37786;DHT22;23625;48.784;9.336;2022-11-15T16:31:55;11.90;99.90
37786;DHT22;23625;48.784;9.336;2022-11-15T16:34:21;11.90;99.90
37786;DHT22;23625;48.784;9.336;2022-11-15T16:36:47;11.90;99.90
37786;DHT22;23625;48.784;9.336;2022-11-15T16:39:13;11.90;99.90
37786;DHT22;23625;48.784;9.336;2022-11-15T16:41:40;11.90;99.90
37786;DHT22;23625;48.784;9.336;2022-11-15T16:44:08;11.90;99.90
37786;DHT22;23625;48.784;9.336;2022-11-15T16:46:34;11.80;99.90
37786;DHT22;23625;48.784;9.336;2022-11-15T16:48:59;11.80;99.90
37786;DHT22;23625;48.784;9.336;2022-11-15T16:51:25;11.80;99.90
37786;DHT22;23625;48.784;9.336;2022-11-15T16:53:51;11.90;99.90
37786;DHT22;23625;48.784;9.336;2022-11-15T16:58:52;11.80;99.90
37786;DHT22;23625;48.784;9.336;2022-11-15T17:01:24;11.80;99.90
37786;DHT22;23625;48.784;9.336;2022-11-15T17:03:50;11.90;99.90
37786;DHT22;23625;48.784;9.336;2022-11-15T17:06:17;11.90;99.90
37786;DHT22;23625;48.784;9.336;2022-11-15T17:08:46;11.90;99.90
37786;DHT22;23625;48.784;9.336;2022-11-15T17:11:17;11.90;99.90
37786;DHT22;23625;48.784;9.336;2022-11-15T17:13:44;11.90;99.90
37786;DHT22;23625;48.784;9.336;2022-11-15T17:16:12;11.90;99.90
37786;DHT22;23625;48.784;9.336;2022-11-15T17:18:38;11.90;99.90
37786;DHT22;23625;48.784;9.336;2022-11-15T17:21:14;11.90;99.90
37786;DHT22;23625;48.784;9.336;2022-11-15T17:23:40;11.90;99.90
37786;DHT22;23625;48.784;9.336;2022-11-15T17:26:06;11.90;99.90
37786;DHT22;23625;48.784;9.336;2022-11-15T17:28:32;12.00;99.90
37786;DHT22;23625;48.784;9.336;2022-11-15T17:30:58;12.00;99.90
37786;DHT22;23625;48.784;9.336;2022-11-15T17:33:24;12.00;99.90
37786;DHT22;23625;48.784;9.336;2022-11-15T17:35:57;12.00;99.90
37786;DHT22;23625;48.784;9.336;2022-11-15T17:38:24;12.00;99.90
37786;DHT22;23625;48.784;9.336;2022-11-15T17:41:01;12.00;99.90
37786;DHT22;23625;48.784;9.336;2022-11-15T17:43:28;12.00;99.90
37786;DHT22;23625;48.784;9.336;2022-11-15T17:45:54;12.00;99.90
37786;DHT22;23625;48.784;9.336;2022-11-15T17:48:20;12.00;99.90
37786;DHT22;23625;48.784;9.336;2022-11-15T17:50:58;12.10;99.90
37786;DHT22;23625;48.784;9.336;2022-11-15T17:53:24;12.10;99.90